sensor_id;sensor_type;location;lat;lon;timestamp;P1;durP1;ratioP1;P2;durP2;ratioP2
39540;SDS011;25219;52.244;21.006;2023-04-06T00:02:00;7.45;;;3.42;;
39540;SDS011;25219;52.244;21.006;2023-04-06T00:04:25;10.50;;;3.57;;
39540;SDS011;25219;52.244;21.006;2023-04-06T00:06:51;8.25;;;3.63;;
39540;SDS011;25219;52.244;21.006;2023-04-06T00:09:16;11.73;;;3.58;;
39540;SDS011;25219;52.244;21.006;2023-04-06T00:11:42;8.50;;;3.92;;
39540;SDS011;25219;52.244;21.006;2023-04-06T00:14:07;5.72;;;3.30;;
39540;SDS011;25219;52.244;21.006;2023-04-06T00:16:32;7.88;;;3.55;;
39540;SDS011;25219;52.244;21.006;2023-04-06T00:18:57;6.88;;;3.45;;
39540;SDS011;25219;52.244;21.006;2023-04-06T00:21:23;8.82;;;3.08;;
39540;SDS011;25219;52.244;21.006;2023-04-06T00:23:48;12.23;;;3.70;;
39540;SDS011;25219;52.244;21.006;2023-04-06T00:26:13;6.60;;;3.30;;
39540;SDS011;25219;52.244;21.006;2023-04-06T00:28:38;7.83;;;3.07;;
39540;SDS011;25219;52.244;21.006;2023-04-06T00:31:04;9.50;;;3.75;;
39540;SDS011;25219;52.244;21.006;2023-04-06T00:33:29;9.25;;;3.90;;
39540;SDS011;25219;52.244;21.006;2023-04-06T00:35:55;6.65;;;3.63;;
39540;SDS011;25219;52.244;21.006;2023-04-06T00:38:20;9.82;;;3.42;;
39540;SDS011;25219;52.244;21.006;2023-04-06T00:40:45;9.52;;;3.33;;
39540;SDS011;25219;52.244;21.006;2023-04-06T00:43:11;6.38;;;3.20;;
39540;SDS011;25219;52.244;21.006;2023-04-06T00:45:37;8.73;;;3.55;;
39540;SDS011;25219;52.244;21.006;2023-04-06T00:48:02;10.00;;;3.95;;
39540;SDS011;25219;52.244;21.006;2023-04-06T00:50:28;7.82;;;3.58;;
39540;SDS011;25219;52.244;21.006;2023-04-06T00:52:56;6.35;;;3.20;;
39540;SDS011;25219;52.244;21.006;2023-04-06T00:55:21;6.75;;;3.67;;
39540;SDS011;25219;52.244;21.006;2023-04-06T00:57:46;9.70;;;4.47;;
39540;SDS011;25219;52.244;21.006;2023-04-06T01:00:12;5.50;;;3.55;;
39540;SDS011;25219;52.244;21.006;2023-04-06T01:02:38;10.57;;;4.30;;
39540;SDS011;25219;52.244;21.006;2023-04-06T01:05:03;9.20;;;4.20;;
39540;SDS011;25219;52.244;21.006;2023-04-06T01:07:29;11.73;;;3.80;;
39540;SDS011;25219;52.244;21.006;2023-04-06T01:09:54;9.45;;;4.35;;
39540;SDS011;25219;52.244;21.006;2023-04-06T01:12:19;10.85;;;4.18;;
39540;SDS011;25219;52.244;21.006;2023-04-06T01:14:45;9.32;;;3.97;;
39540;SDS011;25219;52.244;21.006;2023-04-06T01:17:10;8.45;;;4.07;;
39540;SDS011;25219;52.244;21.006;2023-04-06T01:19:36;8.43;;;3.78;;
39540;SDS011;25219;52.244;21.006;2023-04-06T01:22:01;5.50;;;3.05;;
39540;SDS011;25219;52.244;21.006;2023-04-06T01:24:26;5.43;;;3.10;;
39540;SDS011;25219;52.244;21.006;2023-04-06T01:26:51;9.05;;;3.88;;
39540;SDS011;25219;52.244;21.006;2023-04-06T01:29:17;15.07;;;4.15;;
39540;SDS011;25219;52.244;21.006;2023-04-06T01:31:42;10.18;;;4.53;;
39540;SDS011;25219;52.244;21.006;2023-04-06T01:34:07;6.63;;;3.20;;
39540;SDS011;25219;52.244;21.006;2023-04-06T01:36:32;10.45;;;3.42;;
39540;SDS011;25219;52.244;21.006;2023-04-06T01:38:58;7.20;;;3.30;;
39540;SDS011;25219;52.244;21.006;2023-04-06T01:41:23;7.68;;;3.20;;
39540;SDS011;25219;52.244;21.006;2023-04-06T01:43:48;8.15;;;3.35;;
39540;SDS011;25219;52.244;21.006;2023-04-06T01:46:14;9.35;;;3.10;;
39540;SDS011;25219;52.244;21.006;2023-04-06T01:48:40;6.82;;;3.40;;
39540;SDS011;25219;52.244;21.006;2023-04-06T01:51:05;9.20;;;3.30;;
39540;SDS011;25219;52.244;21.006;2023-04-06T01:53:30;6.75;;;3.67;;
39540;SDS011;25219;52.244;21.006;2023-04-06T01:55:56;7.95;;;3.38;;
39540;SDS011;25219;52.244;21.006;2023-04-06T01:58:21;7.07;;;3.38;;
39540;SDS011;25219;52.244;21.006;2023-04-06T02:00:46;7.57;;;3.83;;
39540;SDS011;25219;52.244;21.006;2023-04-06T02:03:11;10.13;;;3.80;;
39540;SDS011;25219;52.244;21.006;2023-04-06T02:05:37;9.05;;;4.00;;
39540;SDS011;25219;52.244;21.006;2023-04-06T02:08:05;7.60;;;3.90;;
39540;SDS011;25219;52.244;21.006;2023-04-06T02:10:31;9.85;;;4.03;;
39540;SDS011;25219;52.244;21.006;2023-04-06T02:12:56;9.85;;;4.28;;
39540;SDS011;25219;52.244;21.006;2023-04-06T02:15:21;9.40;;;4.03;;
39540;SDS011;25219;52.244;21.006;2023-04-06T02:17:47;14.00;;;4.10;;
39540;SDS011;25219;52.244;21.006;2023-04-06T02:20:12;6.95;;;3.60;;
39540;SDS011;25219;52.244;21.006;2023-04-06T02:22:37;8.18;;;4.13;;
39540;SDS011;25219;52.244;21.006;2023-04-06T02:25:02;9.13;;;4.00;;
39540;SDS011;25219;52.244;21.006;2023-04-06T02:27:28;9.98;;;4.40;;
39540;SDS011;25219;52.244;21.006;2023-04-06T02:29:53;14.10;;;4.63;;
39540;SDS011;25219;52.244;21.006;2023-04-06T02:32:18;7.93;;;3.95;;
39540;SDS011;25219;52.244;21.006;2023-04-06T02:34:44;7.78;;;4.22;;
39540;SDS011;25219;52.244;21.006;2023-04-06T02:37:09;9.00;;;3.80;;
39540;SDS011;25219;52.244;21.006;2023-04-06T02:39:34;9.27;;;4.30;;
39540;SDS011;25219;52.244;21.006;2023-04-06T02:42:00;8.57;;;4.07;;
39540;SDS011;25219;52.244;21.006;2023-04-06T02:44:25;11.63;;;4.82;;
39540;SDS011;25219;52.244;21.006;2023-04-06T02:46:50;10.85;;;3.97;;
39540;SDS011;25219;52.244;21.006;2023-04-06T02:49:15;11.47;;;4.07;;
39540;SDS011;25219;52.244;21.006;2023-04-06T02:51:41;8.80;;;3.88;;
39540;SDS011;25219;52.244;21.006;2023-04-06T02:54:06;10.70;;;4.22;;
39540;SDS011;25219;52.244;21.006;2023-04-06T02:56:31;8.33;;;4.13;;
39540;SDS011;25219;52.244;21.006;2023-04-06T02:58:56;12.20;;;4.63;;
39540;SDS011;25219;52.244;21.006;2023-04-06T03:01:22;8.70;;;4.43;;
39540;SDS011;25219;52.244;21.006;2023-04-06T03:03:47;10.60;;;5.00;;
39540;SDS011;25219;52.244;21.006;2023-04-06T03:06:12;12.77;;;5.38;;
39540;SDS011;25219;52.244;21.006;2023-04-06T03:08:38;15.15;;;4.80;;
39540;SDS011;25219;52.244;21.006;2023-04-06T03:11:03;15.27;;;6.05;;
39540;SDS011;25219;52.244;21.006;2023-04-06T03:13:28;13.63;;;5.90;;
39540;SDS011;25219;52.244;21.006;2023-04-06T03:15:53;12.93;;;5.60;;
39540;SDS011;25219;52.244;21.006;2023-04-06T03:18:21;12.88;;;5.60;;
39540;SDS011;25219;52.244;21.006;2023-04-06T03:20:48;17.20;;;6.00;;
39540;SDS011;25219;52.244;21.006;2023-04-06T03:23:13;11.70;;;5.38;;
39540;SDS011;25219;52.244;21.006;2023-04-06T03:25:38;10.07;;;5.20;;
39540;SDS011;25219;52.244;21.006;2023-04-06T03:28:04;13.07;;;5.50;;
39540;SDS011;25219;52.244;21.006;2023-04-06T03:30:30;18.55;;;6.43;;
39540;SDS011;25219;52.244;21.006;2023-04-06T03:32:55;10.70;;;5.45;;
39540;SDS011;25219;52.244;21.006;2023-04-06T03:35:20;12.52;;;6.28;;
39540;SDS011;25219;52.244;21.006;2023-04-06T03:37:45;19.10;;;6.43;;
39540;SDS011;25219;52.244;21.006;2023-04-06T03:40:11;13.82;;;5.47;;
39540;SDS011;25219;52.244;21.006;2023-04-06T03:42:36;13.52;;;5.57;;
39540;SDS011;25219;52.244;21.006;2023-04-06T03:45:01;18.17;;;6.05;;
39540;SDS011;25219;52.244;21.006;2023-04-06T03:47:26;11.98;;;6.10;;
39540;SDS011;25219;52.244;21.006;2023-04-06T03:49:52;16.23;;;6.63;;
39540;SDS011;25219;52.244;21.006;2023-04-06T03:52:17;13.15;;;6.05;;
39540;SDS011;25219;52.244;21.006;2023-04-06T03:54:42;16.60;;;6.30;;
39540;SDS011;25219;52.244;21.006;2023-04-06T03:57:08;20.60;;;7.20;;
39540;SDS011;25219;52.244;21.006;2023-04-06T03:59:33;14.90;;;6.60;;
39540;SDS011;25219;52.244;21.006;2023-04-06T04:01:58;15.57;;;6.60;;
39540;SDS011;25219;52.244;21.006;2023-04-06T04:04:23;15.37;;;6.30;;
39540;SDS011;25219;52.244;21.006;2023-04-06T04:06:48;14.82;;;7.07;;
39540;SDS011;25219;52.244;21.006;2023-04-06T04:09:14;18.38;;;7.05;;
39540;SDS011;25219;52.244;21.006;2023-04-06T04:11:39;18.88;;;6.88;;
39540;SDS011;25219;52.244;21.006;2023-04-06T04:14:05;20.42;;;6.45;;
39540;SDS011;25219;52.244;21.006;2023-04-06T04:16:30;17.00;;;6.60;;
39540;SDS011;25219;52.244;21.006;2023-04-06T04:18:55;15.90;;;6.68;;
39540;SDS011;25219;52.244;21.006;2023-04-06T04:21:23;16.00;;;6.53;;
39540;SDS011;25219;52.244;21.006;2023-04-06T04:23:48;18.65;;;6.85;;
39540;SDS011;25219;52.244;21.006;2023-04-06T04:26:13;16.13;;;6.47;;
39540;SDS011;25219;52.244;21.006;2023-04-06T04:28:38;13.37;;;5.97;;
39540;SDS011;25219;52.244;21.006;2023-04-06T04:31:03;15.35;;;6.18;;
39540;SDS011;25219;52.244;21.006;2023-04-06T04:33:29;19.23;;;6.93;;
39540;SDS011;25219;52.244;21.006;2023-04-06T04:35:54;16.98;;;6.25;;
39540;SDS011;25219;52.244;21.006;2023-04-06T04:38:19;12.68;;;5.88;;
39540;SDS011;25219;52.244;21.006;2023-04-06T04:40:45;15.77;;;6.68;;
39540;SDS011;25219;52.244;21.006;2023-04-06T04:43:10;16.05;;;6.85;;
39540;SDS011;25219;52.244;21.006;2023-04-06T04:45:36;12.93;;;5.63;;
39540;SDS011;25219;52.244;21.006;2023-04-06T04:48:01;14.23;;;6.53;;
39540;SDS011;25219;52.244;21.006;2023-04-06T04:50:26;17.63;;;6.53;;
39540;SDS011;25219;52.244;21.006;2023-04-06T04:52:51;15.00;;;6.45;;
39540;SDS011;25219;52.244;21.006;2023-04-06T04:55:17;12.60;;;5.70;;
39540;SDS011;25219;52.244;21.006;2023-04-06T04:57:42;12.73;;;6.05;;
39540;SDS011;25219;52.244;21.006;2023-04-06T05:00:08;14.82;;;6.20;;
39540;SDS011;25219;52.244;21.006;2023-04-06T05:02:33;9.05;;;5.22;;
39540;SDS011;25219;52.244;21.006;2023-04-06T05:04:58;13.47;;;5.00;;
39540;SDS011;25219;52.244;21.006;2023-04-06T05:07:24;11.82;;;5.13;;
39540;SDS011;25219;52.244;21.006;2023-04-06T05:09:49;16.98;;;5.00;;
39540;SDS011;25219;52.244;21.006;2023-04-06T05:12:14;14.63;;;5.85;;
39540;SDS011;25219;52.244;21.006;2023-04-06T05:14:40;19.55;;;5.78;;
39540;SDS011;25219;52.244;21.006;2023-04-06T05:17:05;11.23;;;5.25;;
39540;SDS011;25219;52.244;21.006;2023-04-06T05:19:30;10.40;;;5.10;;
39540;SDS011;25219;52.244;21.006;2023-04-06T05:21:56;13.38;;;5.15;;
39540;SDS011;25219;52.244;21.006;2023-04-06T05:24:21;14.57;;;5.53;;
39540;SDS011;25219;52.244;21.006;2023-04-06T05:26:46;10.55;;;4.85;;
39540;SDS011;25219;52.244;21.006;2023-04-06T05:29:12;14.23;;;5.28;;
39540;SDS011;25219;52.244;21.006;2023-04-06T05:31:37;13.13;;;5.68;;
39540;SDS011;25219;52.244;21.006;2023-04-06T05:34:02;11.57;;;5.38;;
39540;SDS011;25219;52.244;21.006;2023-04-06T05:36:28;12.23;;;4.72;;
39540;SDS011;25219;52.244;21.006;2023-04-06T05:38:53;15.03;;;5.27;;
39540;SDS011;25219;52.244;21.006;2023-04-06T05:41:20;12.10;;;5.10;;
39540;SDS011;25219;52.244;21.006;2023-04-06T05:43:45;14.68;;;6.15;;
39540;SDS011;25219;52.244;21.006;2023-04-06T05:46:10;12.60;;;5.65;;
39540;SDS011;25219;52.244;21.006;2023-04-06T05:48:35;13.70;;;5.30;;
39540;SDS011;25219;52.244;21.006;2023-04-06T05:51:01;12.60;;;5.47;;
39540;SDS011;25219;52.244;21.006;2023-04-06T05:53:31;18.25;;;4.47;;
39540;SDS011;25219;52.244;21.006;2023-04-06T05:55:56;12.93;;;4.60;;
39540;SDS011;25219;52.244;21.006;2023-04-06T05:58:21;9.27;;;4.65;;
39540;SDS011;25219;52.244;21.006;2023-04-06T06:00:47;12.75;;;4.80;;
39540;SDS011;25219;52.244;21.006;2023-04-06T06:03:12;15.90;;;5.00;;
39540;SDS011;25219;52.244;21.006;2023-04-06T06:05:37;15.23;;;5.07;;
39540;SDS011;25219;52.244;21.006;2023-04-06T06:08:03;7.93;;;4.43;;
39540;SDS011;25219;52.244;21.006;2023-04-06T06:10:28;14.15;;;5.00;;
39540;SDS011;25219;52.244;21.006;2023-04-06T06:12:53;13.82;;;4.70;;
39540;SDS011;25219;52.244;21.006;2023-04-06T06:15:18;12.40;;;4.80;;
39540;SDS011;25219;52.244;21.006;2023-04-06T06:17:44;13.15;;;4.75;;
39540;SDS011;25219;52.244;21.006;2023-04-06T06:20:09;8.95;;;4.35;;
39540;SDS011;25219;52.244;21.006;2023-04-06T06:22:34;10.18;;;4.32;;
39540;SDS011;25219;52.244;21.006;2023-04-06T06:25:00;10.48;;;3.65;;
39540;SDS011;25219;52.244;21.006;2023-04-06T06:27:25;14.23;;;3.95;;
39540;SDS011;25219;52.244;21.006;2023-04-06T06:29:51;8.32;;;3.65;;
39540;SDS011;25219;52.244;21.006;2023-04-06T06:32:16;7.78;;;4.22;;
39540;SDS011;25219;52.244;21.006;2023-04-06T06:34:41;13.40;;;3.73;;
39540;SDS011;25219;52.244;21.006;2023-04-06T06:37:06;15.82;;;3.40;;
39540;SDS011;25219;52.244;21.006;2023-04-06T06:39:31;9.47;;;3.70;;
39540;SDS011;25219;52.244;21.006;2023-04-06T06:41:57;8.43;;;3.35;;
39540;SDS011;25219;52.244;21.006;2023-04-06T06:44:22;11.00;;;3.50;;
39540;SDS011;25219;52.244;21.006;2023-04-06T06:46:47;10.30;;;3.38;;
39540;SDS011;25219;52.244;21.006;2023-04-06T06:49:13;11.63;;;3.58;;
39540;SDS011;25219;52.244;21.006;2023-04-06T06:51:39;7.97;;;3.40;;
39540;SDS011;25219;52.244;21.006;2023-04-06T06:54:04;8.45;;;3.53;;
39540;SDS011;25219;52.244;21.006;2023-04-06T06:56:29;4.77;;;3.07;;
39540;SDS011;25219;52.244;21.006;2023-04-06T06:58:54;8.52;;;3.42;;
39540;SDS011;25219;52.244;21.006;2023-04-06T07:01:20;6.82;;;3.92;;
39540;SDS011;25219;52.244;21.006;2023-04-06T07:03:45;5.88;;;3.13;;
39540;SDS011;25219;52.244;21.006;2023-04-06T07:06:10;8.30;;;3.65;;
39540;SDS011;25219;52.244;21.006;2023-04-06T07:08:36;9.00;;;2.97;;
39540;SDS011;25219;52.244;21.006;2023-04-06T07:11:01;4.25;;;2.47;;
39540;SDS011;25219;52.244;21.006;2023-04-06T07:13:26;7.60;;;2.92;;
39540;SDS011;25219;52.244;21.006;2023-04-06T07:15:52;4.68;;;2.63;;
39540;SDS011;25219;52.244;21.006;2023-04-06T07:18:18;5.28;;;2.78;;
39540;SDS011;25219;52.244;21.006;2023-04-06T07:20:43;6.10;;;2.22;;
39540;SDS011;25219;52.244;21.006;2023-04-06T07:23:08;6.63;;;2.83;;
39540;SDS011;25219;52.244;21.006;2023-04-06T07:25:34;10.82;;;2.75;;
39540;SDS011;25219;52.244;21.006;2023-04-06T07:27:59;5.65;;;2.63;;
39540;SDS011;25219;52.244;21.006;2023-04-06T07:30:24;7.35;;;2.78;;
39540;SDS011;25219;52.244;21.006;2023-04-06T07:32:53;4.63;;;2.55;;
39540;SDS011;25219;52.244;21.006;2023-04-06T07:35:20;6.63;;;2.72;;
39540;SDS011;25219;52.244;21.006;2023-04-06T07:37:45;6.88;;;2.72;;
39540;SDS011;25219;52.244;21.006;2023-04-06T07:40:11;5.85;;;2.63;;
39540;SDS011;25219;52.244;21.006;2023-04-06T07:42:36;8.65;;;2.40;;
39540;SDS011;25219;52.244;21.006;2023-04-06T07:45:02;4.35;;;2.47;;
39540;SDS011;25219;52.244;21.006;2023-04-06T07:47:27;7.32;;;3.50;;
39540;SDS011;25219;52.244;21.006;2023-04-06T07:49:54;5.40;;;2.30;;
39540;SDS011;25219;52.244;21.006;2023-04-06T07:52:20;6.28;;;2.80;;
39540;SDS011;25219;52.244;21.006;2023-04-06T07:54:45;4.75;;;2.50;;
39540;SDS011;25219;52.244;21.006;2023-04-06T07:57:11;6.90;;;2.78;;
39540;SDS011;25219;52.244;21.006;2023-04-06T07:59:36;5.20;;;2.22;;
39540;SDS011;25219;52.244;21.006;2023-04-06T08:02:01;3.63;;;2.28;;
39540;SDS011;25219;52.244;21.006;2023-04-06T08:04:27;8.70;;;3.10;;
39540;SDS011;25219;52.244;21.006;2023-04-06T08:06:52;7.30;;;2.67;;
39540;SDS011;25219;52.244;21.006;2023-04-06T08:09:17;8.32;;;2.83;;
39540;SDS011;25219;52.244;21.006;2023-04-06T08:11:43;5.50;;;2.40;;
39540;SDS011;25219;52.244;21.006;2023-04-06T08:14:11;7.28;;;2.63;;
39540;SDS011;25219;52.244;21.006;2023-04-06T08:16:36;5.63;;;2.85;;
39540;SDS011;25219;52.244;21.006;2023-04-06T08:19:01;9.07;;;2.20;;
39540;SDS011;25219;52.244;21.006;2023-04-06T08:21:26;3.77;;;2.50;;
39540;SDS011;25219;52.244;21.006;2023-04-06T08:23:52;6.15;;;2.67;;
39540;SDS011;25219;52.244;21.006;2023-04-06T08:26:17;7.82;;;3.20;;
39540;SDS011;25219;52.244;21.006;2023-04-06T08:28:42;6.90;;;2.75;;
39540;SDS011;25219;52.244;21.006;2023-04-06T08:31:07;6.72;;;3.05;;
39540;SDS011;25219;52.244;21.006;2023-04-06T08:33:33;6.78;;;3.33;;
39540;SDS011;25219;52.244;21.006;2023-04-06T08:36:14;15.13;;;3.42;;
39540;SDS011;25219;52.244;21.006;2023-04-06T08:38:40;9.90;;;2.60;;
39540;SDS011;25219;52.244;21.006;2023-04-06T08:41:11;5.43;;;2.45;;
39540;SDS011;25219;52.244;21.006;2023-04-06T08:43:42;5.00;;;2.78;;
39540;SDS011;25219;52.244;21.006;2023-04-06T08:46:08;7.68;;;3.00;;
39540;SDS011;25219;52.244;21.006;2023-04-06T08:48:33;8.23;;;2.92;;
39540;SDS011;25219;52.244;21.006;2023-04-06T08:50:59;4.13;;;2.50;;
39540;SDS011;25219;52.244;21.006;2023-04-06T08:53:25;3.88;;;2.42;;
39540;SDS011;25219;52.244;21.006;2023-04-06T08:55:50;8.00;;;2.83;;
39540;SDS011;25219;52.244;21.006;2023-04-06T08:58:16;9.32;;;3.42;;
39540;SDS011;25219;52.244;21.006;2023-04-06T09:00:41;7.85;;;2.47;;
39540;SDS011;25219;52.244;21.006;2023-04-06T09:03:07;5.75;;;2.97;;
39540;SDS011;25219;52.244;21.006;2023-04-06T09:05:33;6.45;;;3.20;;
39540;SDS011;25219;52.244;21.006;2023-04-06T09:07:58;7.00;;;2.58;;
39540;SDS011;25219;52.244;21.006;2023-04-06T09:10:24;8.38;;;3.20;;
39540;SDS011;25219;52.244;21.006;2023-04-06T09:12:50;9.25;;;2.58;;
39540;SDS011;25219;52.244;21.006;2023-04-06T09:15:22;8.18;;;2.90;;
39540;SDS011;25219;52.244;21.006;2023-04-06T09:17:47;5.90;;;3.15;;
39540;SDS011;25219;52.244;21.006;2023-04-06T09:20:12;6.60;;;3.28;;
39540;SDS011;25219;52.244;21.006;2023-04-06T09:22:38;4.28;;;2.53;;
39540;SDS011;25219;52.244;21.006;2023-04-06T09:25:20;7.13;;;3.33;;
39540;SDS011;25219;52.244;21.006;2023-04-06T09:27:48;6.05;;;2.88;;
39540;SDS011;25219;52.244;21.006;2023-04-06T09:30:14;7.85;;;3.65;;
39540;SDS011;25219;52.244;21.006;2023-04-06T09:32:48;6.57;;;3.17;;
39540;SDS011;25219;52.244;21.006;2023-04-06T09:35:13;12.82;;;6.68;;
39540;SDS011;25219;52.244;21.006;2023-04-06T09:37:39;6.43;;;3.78;;
39540;SDS011;25219;52.244;21.006;2023-04-06T09:40:05;7.50;;;3.75;;
39540;SDS011;25219;52.244;21.006;2023-04-06T09:42:31;6.50;;;3.50;;
39540;SDS011;25219;52.244;21.006;2023-04-06T09:44:56;11.13;;;4.80;;
39540;SDS011;25219;52.244;21.006;2023-04-06T09:47:21;7.85;;;4.30;;
39540;SDS011;25219;52.244;21.006;2023-04-06T09:49:48;12.77;;;5.32;;
39540;SDS011;25219;52.244;21.006;2023-04-06T09:52:15;12.45;;;6.68;;
39540;SDS011;25219;52.244;21.006;2023-04-06T09:54:40;11.90;;;6.05;;
39540;SDS011;25219;52.244;21.006;2023-04-06T09:59:40;6.73;;;4.50;;
39540;SDS011;25219;52.244;21.006;2023-04-06T10:02:08;12.20;;;4.40;;
39540;SDS011;25219;52.244;21.006;2023-04-06T10:04:40;6.45;;;3.90;;
39540;SDS011;25219;52.244;21.006;2023-04-06T10:07:07;7.57;;;3.88;;
39540;SDS011;25219;52.244;21.006;2023-04-06T10:09:33;13.88;;;4.57;;
39540;SDS011;25219;52.244;21.006;2023-04-06T10:12:04;7.65;;;4.10;;
39540;SDS011;25219;52.244;21.006;2023-04-06T10:14:31;5.47;;;3.40;;
39540;SDS011;25219;52.244;21.006;2023-04-06T10:16:56;5.90;;;3.08;;
39540;SDS011;25219;52.244;21.006;2023-04-06T10:19:26;5.75;;;3.25;;
39540;SDS011;25219;52.244;21.006;2023-04-06T10:21:53;5.55;;;3.35;;
39540;SDS011;25219;52.244;21.006;2023-04-06T10:24:20;4.93;;;2.90;;
39540;SDS011;25219;52.244;21.006;2023-04-06T10:26:56;4.20;;;3.40;;
39540;SDS011;25219;52.244;21.006;2023-04-06T10:29:22;8.73;;;3.30;;
39540;SDS011;25219;52.244;21.006;2023-04-06T10:31:48;6.05;;;2.90;;
39540;SDS011;25219;52.244;21.006;2023-04-06T10:34:13;9.00;;;4.18;;
39540;SDS011;25219;52.244;21.006;2023-04-06T10:36:39;7.88;;;3.20;;
39540;SDS011;25219;52.244;21.006;2023-04-06T10:39:05;9.15;;;3.45;;
39540;SDS011;25219;52.244;21.006;2023-04-06T10:43:59;7.22;;;3.22;;
39540;SDS011;25219;52.244;21.006;2023-04-06T10:46:26;9.50;;;3.42;;
39540;SDS011;25219;52.244;21.006;2023-04-06T10:48:52;5.40;;;3.53;;
39540;SDS011;25219;52.244;21.006;2023-04-06T10:51:18;6.32;;;3.60;;
39540;SDS011;25219;52.244;21.006;2023-04-06T10:53:47;5.00;;;3.55;;
39540;SDS011;25219;52.244;21.006;2023-04-06T10:56:16;5.25;;;3.90;;
39540;SDS011;25219;52.244;21.006;2023-04-06T10:58:48;5.55;;;3.20;;
39540;SDS011;25219;52.244;21.006;2023-04-06T11:01:14;8.57;;;4.00;;
39540;SDS011;25219;52.244;21.006;2023-04-06T11:03:44;6.75;;;4.05;;
39540;SDS011;25219;52.244;21.006;2023-04-06T11:06:09;7.68;;;3.72;;
39540;SDS011;25219;52.244;21.006;2023-04-06T11:08:35;7.00;;;4.35;;
39540;SDS011;25219;52.244;21.006;2023-04-06T11:11:09;9.95;;;4.45;;
39540;SDS011;25219;52.244;21.006;2023-04-06T11:13:41;7.38;;;4.55;;
39540;SDS011;25219;52.244;21.006;2023-04-06T11:16:06;7.35;;;4.28;;
39540;SDS011;25219;52.244;21.006;2023-04-06T11:18:31;5.30;;;3.75;;
39540;SDS011;25219;52.244;21.006;2023-04-06T11:20:57;6.50;;;3.72;;
39540;SDS011;25219;52.244;21.006;2023-04-06T11:23:24;6.88;;;3.55;;
39540;SDS011;25219;52.244;21.006;2023-04-06T11:25:53;9.27;;;3.95;;
39540;SDS011;25219;52.244;21.006;2023-04-06T11:28:19;6.88;;;4.40;;
39540;SDS011;25219;52.244;21.006;2023-04-06T11:30:45;7.60;;;3.88;;
39540;SDS011;25219;52.244;21.006;2023-04-06T11:33:10;9.68;;;4.22;;
39540;SDS011;25219;52.244;21.006;2023-04-06T11:35:35;8.90;;;4.07;;
39540;SDS011;25219;52.244;21.006;2023-04-06T11:38:05;7.15;;;4.43;;
39540;SDS011;25219;52.244;21.006;2023-04-06T11:40:30;7.07;;;4.07;;
39540;SDS011;25219;52.244;21.006;2023-04-06T11:42:58;8.32;;;4.20;;
39540;SDS011;25219;52.244;21.006;2023-04-06T11:45:23;13.40;;;4.15;;
39540;SDS011;25219;52.244;21.006;2023-04-06T11:48:06;7.13;;;4.05;;
39540;SDS011;25219;52.244;21.006;2023-04-06T11:50:36;9.77;;;4.30;;
39540;SDS011;25219;52.244;21.006;2023-04-06T11:53:02;8.95;;;4.78;;
39540;SDS011;25219;52.244;21.006;2023-04-06T11:55:36;10.50;;;5.25;;
39540;SDS011;25219;52.244;21.006;2023-04-06T11:58:01;7.30;;;4.97;;
39540;SDS011;25219;52.244;21.006;2023-04-06T12:00:27;7.70;;;4.05;;
39540;SDS011;25219;52.244;21.006;2023-04-06T12:02:56;10.77;;;5.57;;
39540;SDS011;25219;52.244;21.006;2023-04-06T12:05:22;6.85;;;4.75;;
39540;SDS011;25219;52.244;21.006;2023-04-06T12:07:48;9.60;;;5.15;;
39540;SDS011;25219;52.244;21.006;2023-04-06T12:10:13;10.87;;;4.57;;
39540;SDS011;25219;52.244;21.006;2023-04-06T12:12:38;7.78;;;4.13;;
39540;SDS011;25219;52.244;21.006;2023-04-06T12:15:04;11.05;;;5.13;;
39540;SDS011;25219;52.244;21.006;2023-04-06T12:17:30;10.88;;;5.22;;
39540;SDS011;25219;52.244;21.006;2023-04-06T12:19:55;8.10;;;4.70;;
39540;SDS011;25219;52.244;21.006;2023-04-06T12:22:20;10.80;;;4.78;;
39540;SDS011;25219;52.244;21.006;2023-04-06T12:24:46;10.70;;;5.20;;
39540;SDS011;25219;52.244;21.006;2023-04-06T12:27:11;7.72;;;4.57;;
39540;SDS011;25219;52.244;21.006;2023-04-06T12:29:37;15.88;;;5.07;;
39540;SDS011;25219;52.244;21.006;2023-04-06T12:32:02;9.60;;;4.80;;
39540;SDS011;25219;52.244;21.006;2023-04-06T12:34:27;6.95;;;4.78;;
39540;SDS011;25219;52.244;21.006;2023-04-06T12:36:53;7.53;;;5.03;;
39540;SDS011;25219;52.244;21.006;2023-04-06T12:39:18;9.87;;;5.40;;
39540;SDS011;25219;52.244;21.006;2023-04-06T12:41:43;13.50;;;5.78;;
39540;SDS011;25219;52.244;21.006;2023-04-06T12:44:09;10.15;;;5.65;;
39540;SDS011;25219;52.244;21.006;2023-04-06T12:46:34;7.07;;;4.68;;
39540;SDS011;25219;52.244;21.006;2023-04-06T12:49:00;6.70;;;4.82;;
39540;SDS011;25219;52.244;21.006;2023-04-06T12:51:29;7.70;;;4.38;;
39540;SDS011;25219;52.244;21.006;2023-04-06T12:53:54;8.45;;;4.10;;
39540;SDS011;25219;52.244;21.006;2023-04-06T12:56:20;7.03;;;3.97;;
39540;SDS011;25219;52.244;21.006;2023-04-06T12:58:47;9.10;;;3.85;;
39540;SDS011;25219;52.244;21.006;2023-04-06T13:01:12;7.65;;;3.63;;
39540;SDS011;25219;52.244;21.006;2023-04-06T13:03:38;6.70;;;3.83;;
39540;SDS011;25219;52.244;21.006;2023-04-06T13:06:03;7.47;;;3.95;;
39540;SDS011;25219;52.244;21.006;2023-04-06T13:08:29;6.85;;;3.60;;
39540;SDS011;25219;52.244;21.006;2023-04-06T13:10:54;6.38;;;4.15;;
39540;SDS011;25219;52.244;21.006;2023-04-06T13:13:23;7.82;;;3.80;;
39540;SDS011;25219;52.244;21.006;2023-04-06T13:15:49;9.55;;;3.70;;
39540;SDS011;25219;52.244;21.006;2023-04-06T13:18:15;8.10;;;3.88;;
39540;SDS011;25219;52.244;21.006;2023-04-06T13:20:40;8.40;;;3.75;;
39540;SDS011;25219;52.244;21.006;2023-04-06T13:23:06;9.00;;;5.20;;
39540;SDS011;25219;52.244;21.006;2023-04-06T13:25:31;8.33;;;5.67;;
39540;SDS011;25219;52.244;21.006;2023-04-06T13:27:57;8.88;;;4.95;;
39540;SDS011;25219;52.244;21.006;2023-04-06T13:30:22;10.85;;;5.82;;
39540;SDS011;25219;52.244;21.006;2023-04-06T13:32:48;10.20;;;6.18;;
39540;SDS011;25219;52.244;21.006;2023-04-06T13:35:13;10.70;;;5.72;;
39540;SDS011;25219;52.244;21.006;2023-04-06T13:37:38;8.35;;;5.22;;
39540;SDS011;25219;52.244;21.006;2023-04-06T13:40:04;11.70;;;5.50;;
39540;SDS011;25219;52.244;21.006;2023-04-06T13:42:30;9.70;;;5.60;;
39540;SDS011;25219;52.244;21.006;2023-04-06T13:44:55;13.25;;;6.30;;
39540;SDS011;25219;52.244;21.006;2023-04-06T13:47:20;10.73;;;4.55;;
39540;SDS011;25219;52.244;21.006;2023-04-06T13:49:46;7.50;;;4.63;;
39540;SDS011;25219;52.244;21.006;2023-04-06T13:52:11;6.15;;;3.88;;
39540;SDS011;25219;52.244;21.006;2023-04-06T13:54:36;6.72;;;4.22;;
39540;SDS011;25219;52.244;21.006;2023-04-06T13:57:02;10.52;;;4.78;;
39540;SDS011;25219;52.244;21.006;2023-04-06T13:59:36;7.55;;;3.85;;
39540;SDS011;25219;52.244;21.006;2023-04-06T14:02:01;8.52;;;4.57;;
39540;SDS011;25219;52.244;21.006;2023-04-06T14:04:27;8.57;;;4.40;;
39540;SDS011;25219;52.244;21.006;2023-04-06T14:06:52;6.65;;;4.32;;
39540;SDS011;25219;52.244;21.006;2023-04-06T14:09:17;8.40;;;4.28;;
39540;SDS011;25219;52.244;21.006;2023-04-06T14:11:43;10.25;;;4.40;;
39540;SDS011;25219;52.244;21.006;2023-04-06T14:14:08;10.00;;;5.18;;
39540;SDS011;25219;52.244;21.006;2023-04-06T14:16:33;8.30;;;4.73;;
39540;SDS011;25219;52.244;21.006;2023-04-06T14:18:58;7.07;;;4.78;;
39540;SDS011;25219;52.244;21.006;2023-04-06T14:21:24;10.88;;;5.30;;
39540;SDS011;25219;52.244;21.006;2023-04-06T14:23:49;6.13;;;3.95;;
39540;SDS011;25219;52.244;21.006;2023-04-06T14:26:15;12.00;;;4.70;;